Time;durP1;ratioP1;P1;durP2;ratioP2;P2;SDS_P1;SDS_P2;PMS_P1;PMS_P2;Temp;Humidity;BMP_temperature;BMP_pressure;BME280_temperature;BME280_humidity;BME280_pressure;Samples;Min_cycle;Max_cycle;Signal;HPM_P1;HPM_P2
2020/12/21 00:01:47;;;;;;;16.20;14.55;;;7.50;99.90;;;;;;5014982;28;20100;-74
2020/12/21 00:04:13;;;;;;;23.15;16.10;;;7.50;99.90;;;;;;4995682;28;20033;-73
2020/12/21 00:06:38;;;;;;;21.00;14.15;;;7.50;99.90;;;;;;5013091;28;20037;-73
2020/12/21 00:09:04;;;;;;;22.75;15.00;;;7.60;99.90;;;;;;5013697;28;20486;-72
2020/12/21 00:11:40;;;;;;;20.30;14.90;;;7.50;99.90;;;;;;5012137;28;20041;-72
2020/12/21 00:14:07;;;;;;;21.52;15.43;;;7.60;99.90;;;;;;5013664;28;20026;-71
2020/12/21 00:16:41;;;;;;;23.77;15.35;;;7.60;99.90;;;;;;5006509;28;20160;-73
2020/12/21 00:19:08;;;;;;;27.30;15.50;;;7.80;99.90;;;;;;5008482;28;20029;-73
2020/12/21 00:21:35;;;;;;;25.15;15.32;;;7.80;99.90;;;;;;5012719;28;20057;-73
2020/12/21 00:24:01;;;;;;;18.77;15.13;;;7.80;99.90;;;;;;5012573;28;20030;-74
2020/12/21 00:26:26;;;;;;;20.55;16.25;;;7.80;99.90;;;;;;4994576;28;20093;-72
2020/12/21 00:28:52;;;;;;;18.63;14.48;;;7.70;99.90;;;;;;5010670;28;20034;-73
2020/12/21 00:31:35;;;;;;;21.35;14.77;;;7.70;99.90;;;;;;5010633;28;20037;-74
2020/12/21 00:34:03;;;;;;;19.73;15.98;;;7.60;99.90;;;;;;5011460;28;20054;-73
2020/12/21 00:36:29;;;;;;;20.02;14.57;;;7.70;99.90;;;;;;4993263;28;20456;-72
2020/12/21 00:38:55;;;;;;;18.70;14.60;;;7.60;99.90;;;;;;4993919;28;20108;-74
2020/12/21 00:41:23;;;;;;;16.95;15.25;;;7.60;99.90;;;;;;5011916;28;20026;-73
2020/12/21 00:43:49;;;;;;;17.90;15.00;;;7.50;99.90;;;;;;5011112;28;20034;-72
2020/12/21 00:46:17;;;;;;;26.08;15.50;;;7.40;99.90;;;;;;5011557;28;20405;-73
2020/12/21 00:48:43;;;;;;;19.35;14.43;;;7.40;99.90;;;;;;5011608;28;20034;-73
2020/12/21 00:51:09;;;;;;;20.70;15.65;;;7.30;99.90;;;;;;5012051;28;20026;-74
2020/12/21 00:53:36;;;;;;;22.67;15.93;;;7.30;99.90;;;;;;5011813;28;20034;-75
2020/12/21 00:56:05;;;;;;;19.67;15.68;;;7.20;99.90;;;;;;5011990;28;20018;-74
2020/12/21 00:58:32;;;;;;;29.55;17.23;;;7.20;99.90;;;;;;5006971;28;20067;-73
2020/12/21 01:00:59;;;;;;;21.48;16.75;;;7.20;99.90;;;;;;5011800;28;20547;-73
2020/12/21 01:03:25;;;;;;;19.10;15.73;;;7.20;99.90;;;;;;5012324;28;20022;-74
2020/12/21 01:05:52;;;;;;;21.00;15.60;;;7.20;99.90;;;;;;5013815;28;20022;-73
2020/12/21 01:08:18;;;;;;;20.20;15.07;;;7.20;99.90;;;;;;5017586;28;20064;-72
2020/12/21 01:10:43;;;;;;;27.58;14.68;;;7.20;99.90;;;;;;5034840;28;20029;-73
2020/12/21 01:13:09;;;;;;;18.45;15.77;;;7.30;99.90;;;;;;5023068;28;20034;-75
2020/12/21 01:15:34;;;;;;;19.75;16.75;;;7.40;99.90;;;;;;5008381;28;20037;-74
2020/12/21 01:18:00;;;;;;;18.98;14.80;;;7.50;99.90;;;;;;5007031;28;20046;-73
2020/12/21 01:20:25;;;;;;;17.63;15.18;;;7.50;99.90;;;;;;5015581;28;20053;-73
2020/12/21 01:22:51;;;;;;;15.68;13.90;;;7.50;99.90;;;;;;5015569;28;20117;-74
2020/12/21 01:25:16;;;;;;;17.58;15.52;;;7.50;99.90;;;;;;5015336;28;20434;-74
2020/12/21 01:27:42;;;;;;;21.67;15.70;;;7.50;99.90;;;;;;5014809;28;20045;-73
2020/12/21 01:30:08;;;;;;;17.50;15.65;;;7.40;99.90;;;;;;5015614;28;20117;-74
2020/12/21 01:32:33;;;;;;;17.90;15.85;;;7.40;99.90;;;;;;5016248;28;20034;-72
2020/12/21 01:34:59;;;;;;;18.23;15.18;;;7.40;99.90;;;;;;5013405;28;20504;-74
2020/12/21 01:37:24;;;;;;;16.27;14.55;;;7.40;99.90;;;;;;5009496;28;20599;-75
2020/12/21 01:39:50;;;;;;;15.50;13.90;;;7.50;99.90;;;;;;5014669;28;20033;-74
2020/12/21 01:42:18;;;;;;;18.70;14.10;;;7.70;99.90;;;;;;5010088;28;20045;-74
2020/12/21 01:44:48;;;;;;;18.73;15.20;;;7.60;99.90;;;;;;4993120;28;20038;-74
2020/12/21 01:47:15;;;;;;;16.55;14.93;;;7.50;99.90;;;;;;5020852;28;20108;-73
2020/12/21 01:49:41;;;;;;;18.40;15.10;;;7.50;99.90;;;;;;5019316;28;20036;-74
2020/12/21 01:52:07;;;;;;;17.02;15.32;;;7.70;99.90;;;;;;5019337;28;20038;-74
2020/12/21 01:54:33;;;;;;;16.60;13.32;;;7.60;99.90;;;;;;5021442;28;20057;-74
2020/12/21 01:56:59;;;;;;;15.90;14.30;;;7.40;99.90;;;;;;5013743;28;20038;-73
2020/12/21 01:59:26;;;;;;;17.92;14.57;;;7.20;99.90;;;;;;5001807;28;20022;-73
2020/12/21 02:01:53;;;;;;;17.45;14.80;;;7.20;99.90;;;;;;5013923;28;20064;-74
2020/12/21 02:04:19;;;;;;;15.98;14.25;;;7.30;99.90;;;;;;5013386;28;20108;-73
2020/12/21 02:06:46;;;;;;;16.38;14.30;;;7.20;99.90;;;;;;5011187;28;20018;-73
2020/12/21 02:09:11;;;;;;;17.10;14.52;;;7.10;99.90;;;;;;4998164;28;20038;-74
2020/12/21 02:11:44;;;;;;;19.05;15.77;;;7.00;99.90;;;;;;5017215;28;20040;-73
2020/12/21 02:14:10;;;;;;;19.98;15.77;;;7.00;99.90;;;;;;5018106;28;20036;-73
2020/12/21 02:16:36;;;;;;;19.33;16.10;;;6.90;99.90;;;;;;5015889;28;20049;-74
2020/12/21 02:19:04;;;;;;;17.67;14.52;;;6.90;99.90;;;;;;5020363;28;20029;-74
2020/12/21 02:21:30;;;;;;;20.55;15.20;;;6.70;99.90;;;;;;5004688;28;20030;-73
2020/12/21 02:23:56;;;;;;;17.17;15.45;;;6.60;99.90;;;;;;5015879;28;20034;-73
2020/12/21 02:26:22;;;;;;;18.67;15.23;;;6.50;99.90;;;;;;4998984;28;20045;-74
2020/12/21 02:28:55;;;;;;;19.17;16.10;;;6.40;99.90;;;;;;5016238;28;20409;-74
2020/12/21 02:31:21;;;;;;;18.92;16.80;;;6.40;99.90;;;;;;5001074;28;20038;-73
2020/12/21 02:33:47;;;;;;;17.73;15.85;;;6.30;99.90;;;;;;5014723;28;20025;-73
2020/12/21 02:36:13;;;;;;;25.33;18.52;;;6.30;99.90;;;;;;5014499;28;20076;-73
2020/12/21 02:38:39;;;;;;;18.35;16.40;;;6.20;99.90;;;;;;5014108;28;20058;-73
2020/12/21 02:41:05;;;;;;;17.73;15.70;;;6.20;99.90;;;;;;5013530;28;20029;-73
2020/12/21 02:43:31;;;;;;;20.25;17.85;;;6.20;99.90;;;;;;5014152;28;20033;-74
2020/12/21 02:45:56;;;;;;;16.42;14.75;;;6.20;99.90;;;;;;5013770;28;20026;-73
2020/12/21 02:48:22;;;;;;;17.10;14.52;;;6.40;99.90;;;;;;5013282;28;20494;-74
2020/12/21 02:50:48;;;;;;;18.70;15.90;;;6.40;99.90;;;;;;4995935;28;20394;-74
2020/12/21 02:53:17;;;;;;;17.55;15.70;;;6.30;99.90;;;;;;5013770;28;20084;-73
2020/12/21 02:55:44;;;;;;;21.05;14.45;;;6.30;99.90;;;;;;5013884;28;20026;-73
2020/12/21 02:58:10;;;;;;;15.77;13.55;;;6.50;99.90;;;;;;5012915;28;20079;-73
2020/12/21 03:00:36;;;;;;;17.58;13.77;;;6.70;99.90;;;;;;5014425;28;20493;-74
2020/12/21 03:03:03;;;;;;;15.80;13.50;;;6.60;99.90;;;;;;5013329;28;20020;-74
2020/12/21 03:05:29;;;;;;;16.02;14.07;;;6.60;99.90;;;;;;5013784;28;20034;-73
2020/12/21 03:07:55;;;;;;;17.05;15.35;;;6.50;99.90;;;;;;4995087;28;20461;-74
2020/12/21 03:10:21;;;;;;;15.80;14.20;;;6.40;99.90;;;;;;5013288;28;20148;-73
2020/12/21 03:12:46;;;;;;;15.13;13.57;;;6.30;99.90;;;;;;5013652;28;20393;-73
2020/12/21 03:15:12;;;;;;;17.15;15.27;;;6.30;99.90;;;;;;5013457;28;20021;-74
2020/12/21 03:17:38;;;;;;;21.55;15.48;;;6.30;99.90;;;;;;5013694;28;20026;-74
2020/12/21 03:20:04;;;;;;;18.45;14.93;;;6.20;99.90;;;;;;5003199;28;20553;-72
2020/12/21 03:22:29;;;;;;;17.23;15.38;;;6.30;99.90;;;;;;5008443;28;20053;-74
2020/12/21 03:24:56;;;;;;;16.55;14.85;;;6.30;99.90;;;;;;5013026;28;20058;-73
2020/12/21 03:27:23;;;;;;;15.27;13.65;;;6.20;99.90;;;;;;5014351;28;20119;-74
2020/12/21 03:29:48;;;;;;;17.98;14.77;;;6.20;99.90;;;;;;5031699;28;20297;-74
2020/12/21 03:32:14;;;;;;;16.77;14.30;;;6.10;99.90;;;;;;5023443;28;20092;-73
2020/12/21 03:34:39;;;;;;;16.10;14.40;;;6.10;99.90;;;;;;5014560;28;20026;-73
2020/12/21 03:37:05;;;;;;;18.33;15.00;;;6.00;99.90;;;;;;5013576;28;20392;-73
2020/12/21 03:39:30;;;;;;;17.98;14.65;;;5.90;99.90;;;;;;5013414;28;20026;-73
2020/12/21 03:41:56;;;;;;;17.80;15.55;;;5.90;99.90;;;;;;5012904;28;20481;-74
2020/12/21 03:44:22;;;;;;;18.90;14.75;;;5.90;99.90;;;;;;5013215;28;20128;-73
2020/12/21 03:46:47;;;;;;;18.60;15.65;;;5.80;99.90;;;;;;5013707;28;20029;-73
2020/12/21 03:49:13;;;;;;;20.75;16.05;;;5.80;99.90;;;;;;4996177;28;20022;-73
2020/12/21 03:51:38;;;;;;;20.13;16.52;;;5.70;99.90;;;;;;4996906;28;20033;-73
2020/12/21 03:54:04;;;;;;;16.88;15.02;;;5.70;99.90;;;;;;5014468;28;20026;-73
2020/12/21 03:56:29;;;;;;;20.02;15.25;;;5.60;99.90;;;;;;5021635;28;20013;-74
2020/12/21 03:58:55;;;;;;;19.08;16.73;;;5.60;99.90;;;;;;5025822;28;20068;-73
2020/12/21 04:01:20;;;;;;;18.73;16.50;;;5.60;99.90;;;;;;5022802;28;20100;-73
2020/12/21 04:03:46;;;;;;;19.52;16.35;;;5.60;99.90;;;;;;5020269;28;20029;-74
2020/12/21 04:06:12;;;;;;;19.33;16.02;;;5.70;99.90;;;;;;5015330;28;20083;-73
2020/12/21 04:08:37;;;;;;;16.65;14.80;;;5.60;99.90;;;;;;5022523;28;20049;-72
2020/12/21 04:11:05;;;;;;;17.20;15.25;;;5.60;99.90;;;;;;5006172;28;20046;-72
2020/12/21 04:13:31;;;;;;;18.58;15.52;;;5.60;99.90;;;;;;5011100;28;20030;-72
2020/12/21 04:15:56;;;;;;;19.17;15.93;;;5.60;99.90;;;;;;5019215;28;20026;-74
2020/12/21 04:18:23;;;;;;;22.35;17.65;;;5.50;99.90;;;;;;5021556;28;20026;-73
2020/12/21 04:20:48;;;;;;;17.85;15.43;;;5.40;99.90;;;;;;5021351;28;20064;-73
2020/12/21 04:23:14;;;;;;;17.58;15.45;;;5.40;99.90;;;;;;5003693;28;20076;-73
2020/12/21 04:25:40;;;;;;;18.67;15.70;;;5.30;99.90;;;;;;5023464;28;20057;-74
2020/12/21 04:28:05;;;;;;;21.10;16.45;;;5.30;99.90;;;;;;5018877;28;20030;-73
2020/12/21 04:30:31;;;;;;;17.25;15.45;;;5.20;99.90;;;;;;5019126;28;20025;-74
2020/12/21 04:32:56;;;;;;;18.15;15.88;;;5.20;99.90;;;;;;5021621;28;20034;-74
2020/12/21 04:35:22;;;;;;;17.60;15.88;;;5.20;99.90;;;;;;5017220;28;20044;-73
2020/12/21 04:37:48;;;;;;;21.95;15.57;;;5.20;99.90;;;;;;5014522;28;20053;-73
2020/12/21 04:40:13;;;;;;;21.85;16.25;;;5.20;99.90;;;;;;5015751;28;20022;-73
2020/12/21 04:42:53;;;;;;;19.50;16.50;;;5.20;99.90;;;;;;5019678;28;20523;-74
2020/12/21 04:45:19;;;;;;;20.88;16.85;;;5.20;99.90;;;;;;5022565;28;20038;-73
2020/12/21 04:47:45;;;;;;;20.85;16.83;;;5.20;99.90;;;;;;5017920;28;20486;-76
2020/12/21 04:50:16;;;;;;;19.50;16.77;;;5.20;99.90;;;;;;5017141;28;20032;-74
2020/12/21 04:52:48;;;;;;;19.52;16.20;;;5.20;99.90;;;;;;5009588;28;20381;-73
2020/12/21 04:55:17;;;;;;;19.40;16.73;;;5.30;99.90;;;;;;5018864;28;20030;-73
2020/12/21 04:57:53;;;;;;;19.08;16.83;;;5.40;99.90;;;;;;5019802;28;20038;-73
2020/12/21 05:00:19;;;;;;;19.45;15.63;;;5.40;99.90;;;;;;5020461;28;20026;-74
2020/12/21 05:02:45;;;;;;;18.23;15.32;;;5.40;99.90;;;;;;5020552;28;20057;-72
2020/12/21 05:05:10;;;;;;;17.67;15.77;;;5.40;99.90;;;;;;5004092;28;20030;-73
2020/12/21 05:07:36;;;;;;;21.92;16.05;;;5.40;99.90;;;;;;5025819;28;20034;-74
2020/12/21 05:10:08;;;;;;;20.10;16.15;;;5.40;99.90;;;;;;5024423;28;20018;-73
2020/12/21 05:12:35;;;;;;;16.23;14.50;;;5.40;99.90;;;;;;5025270;28;20026;-73
2020/12/21 05:15:12;;;;;;;18.38;15.60;;;5.50;99.90;;;;;;5003743;28;20385;-73
2020/12/21 05:17:38;;;;;;;19.83;16.48;;;5.50;99.90;;;;;;5004942;28;20025;-73
2020/12/21 05:20:04;;;;;;;18.10;16.17;;;5.50;99.90;;;;;;5021556;28;20037;-73
2020/12/21 05:22:29;;;;;;;18.98;13.80;;;5.50;99.90;;;;;;5009869;28;20036;-74
2020/12/21 05:25:06;;;;;;;18.83;15.60;;;5.60;99.90;;;;;;5028069;28;20026;-74
2020/12/21 05:27:31;;;;;;;18.27;15.13;;;5.60;99.90;;;;;;5023391;28;20037;-73
2020/12/21 05:29:57;;;;;;;18.10;14.65;;;5.60;99.90;;;;;;5024607;28;20417;-73
2020/12/21 05:32:23;;;;;;;15.60;13.98;;;5.60;99.90;;;;;;5028848;28;20029;-74
2020/12/21 05:34:49;;;;;;;17.10;14.45;;;5.70;99.90;;;;;;5024675;28;20017;-74
2020/12/21 05:37:27;;;;;;;17.90;14.90;;;5.60;99.90;;;;;;5026940;28;20029;-74
2020/12/21 05:39:54;;;;;;;16.85;15.05;;;5.60;99.90;;;;;;5024728;28;20041;-73
2020/12/21 05:42:21;;;;;;;18.60;15.40;;;5.60;99.90;;;;;;5008286;28;20032;-73
2020/12/21 05:44:57;;;;;;;15.38;13.77;;;5.60;99.90;;;;;;5025139;28;20037;-73
2020/12/21 05:47:27;;;;;;;18.50;15.05;;;5.70;99.90;;;;;;5007665;28;20029;-73
2020/12/21 05:49:59;;;;;;;19.48;14.95;;;5.70;99.90;;;;;;5025559;28;20025;-72
2020/12/21 05:52:36;;;;;;;18.92;13.95;;;5.80;99.90;;;;;;5023223;28;20124;-72
2020/12/21 05:55:10;;;;;;;18.77;14.05;;;5.80;99.90;;;;;;5010881;28;20037;-73
2020/12/21 05:57:37;;;;;;;18.98;14.23;;;5.80;99.90;;;;;;4997024;28;20431;-74
2020/12/21 06:00:09;;;;;;;18.33;13.27;;;5.80;99.90;;;;;;4996633;28;20026;-73
2020/12/21 06:02:35;;;;;;;19.50;14.32;;;5.90;99.90;;;;;;4996863;28;20030;-73
2020/12/21 06:05:07;;;;;;;16.98;15.23;;;5.90;99.90;;;;;;5013804;28;20049;-74
2020/12/21 06:07:34;;;;;;;16.83;13.93;;;5.80;99.90;;;;;;5014141;28;20490;-73
2020/12/21 06:10:02;;;;;;;22.50;13.98;;;5.80;99.90;;;;;;5014225;28;20022;-74
2020/12/21 06:12:32;;;;;;;19.60;13.63;;;5.80;99.90;;;;;;5013808;28;20053;-74
2020/12/21 06:15:09;;;;;;;19.42;14.50;;;5.80;99.90;;;;;;5014060;28;20033;-74
2020/12/21 06:17:35;;;;;;;15.85;13.50;;;5.80;99.90;;;;;;4997679;28;20041;-74
2020/12/21 06:20:03;;;;;;;16.67;13.98;;;5.80;99.90;;;;;;5013459;28;20504;-74
2020/12/21 06:22:29;;;;;;;14.95;13.27;;;5.80;99.90;;;;;;4996481;28;20030;-73
2020/12/21 06:24:54;;;;;;;14.25;12.85;;;5.90;99.90;;;;;;5014595;28;20080;-73
2020/12/21 06:27:20;;;;;;;15.20;12.63;;;6.00;99.90;;;;;;5016014;28;20033;-74
2020/12/21 06:29:45;;;;;;;13.20;11.90;;;6.00;99.90;;;;;;5014985;28;20041;-73
2020/12/21 06:32:11;;;;;;;13.65;12.10;;;6.20;99.90;;;;;;5025742;28;20041;-74
2020/12/21 06:34:42;;;;;;;16.33;12.82;;;6.30;99.90;;;;;;5022682;28;20025;-75
2020/12/21 06:37:16;;;;;;;18.35;13.10;;;6.30;99.90;;;;;;5030643;28;20065;-74
2020/12/21 06:39:42;;;;;;;19.63;13.38;;;6.20;99.90;;;;;;5021717;28;20021;-75
2020/12/21 06:42:13;;;;;;;15.52;13.73;;;6.00;99.90;;;;;;5029737;28;20045;-72
2020/12/21 06:44:40;;;;;;;17.80;14.55;;;5.90;99.90;;;;;;5015334;28;20076;-74
2020/12/21 06:47:07;;;;;;;17.88;15.27;;;5.80;99.90;;;;;;5013953;28;20401;-73
2020/12/21 06:49:33;;;;;;;20.67;14.20;;;5.70;99.90;;;;;;5014003;28;20022;-76
2020/12/21 06:51:59;;;;;;;16.63;14.75;;;5.60;99.90;;;;;;5014189;28;20048;-74
2020/12/21 06:54:24;;;;;;;18.10;15.30;;;5.60;99.90;;;;;;5013603;28;20054;-72
2020/12/21 06:56:51;;;;;;;17.52;15.55;;;5.60;99.90;;;;;;5013647;28;20022;-73
2020/12/21 06:59:18;;;;;;;18.73;15.32;;;5.60;99.90;;;;;;5011504;28;20034;-74
2020/12/21 07:01:48;;;;;;;17.85;14.73;;;5.60;99.90;;;;;;5013617;28;20105;-74
2020/12/21 07:04:16;;;;;;;15.15;13.63;;;5.60;99.90;;;;;;5013498;28;20092;-74
2020/12/21 07:06:42;;;;;;;16.88;13.05;;;5.60;99.90;;;;;;5013735;28;20451;-74
2020/12/21 07:09:08;;;;;;;16.33;13.52;;;5.70;99.90;;;;;;5023924;28;20057;-75
2020/12/21 07:11:36;;;;;;;16.33;11.63;;;5.80;99.90;;;;;;5021346;28;20038;-73
2020/12/21 07:14:02;;;;;;;12.35;11.02;;;6.00;99.90;;;;;;4987031;28;20030;-72
2020/12/21 07:16:27;;;;;;;14.27;12.07;;;6.10;99.90;;;;;;5003297;28;20022;-73
2020/12/21 07:18:53;;;;;;;13.35;11.73;;;6.10;99.90;;;;;;4994264;28;20033;-73
2020/12/21 07:21:19;;;;;;;15.13;10.80;;;6.10;99.90;;;;;;4995730;28;20025;-73
2020/12/21 07:23:45;;;;;;;14.93;11.60;;;6.10;99.90;;;;;;5012877;28;20105;-73
2020/12/21 07:26:13;;;;;;;12.80;10.80;;;5.90;99.90;;;;;;5009383;28;20397;-74
2020/12/21 07:28:39;;;;;;;12.52;11.27;;;5.80;99.90;;;;;;5008652;28;20014;-73
2020/12/21 07:31:07;;;;;;;15.55;11.13;;;5.70;99.90;;;;;;5007880;28;20052;-72
2020/12/21 07:33:33;;;;;;;13.35;11.98;;;5.70;99.90;;;;;;5012383;28;20080;-73
2020/12/21 07:35:59;;;;;;;13.80;12.40;;;5.60;99.90;;;;;;5002485;28;20026;-73
2020/12/21 07:38:25;;;;;;;12.68;10.60;;;5.70;99.90;;;;;;5015879;28;20079;-72
2020/12/21 07:40:53;;;;;;;15.88;10.32;;;6.00;99.90;;;;;;5016920;28;20018;-71
2020/12/21 07:43:26;;;;;;;16.15;12.23;;;6.10;99.90;;;;;;5016709;28;20029;-73
2020/12/21 07:46:01;;;;;;;11.63;10.43;;;6.00;99.90;;;;;;5013160;28;20049;-73
2020/12/21 07:48:29;;;;;;;13.85;11.15;;;5.90;99.90;;;;;;5013356;28;20069;-72
2020/12/21 07:50:54;;;;;;;12.43;10.20;;;5.80;99.90;;;;;;5013497;28;20036;-74
2020/12/21 07:53:23;;;;;;;15.20;11.63;;;5.70;99.90;;;;;;4995831;28;20382;-73
2020/12/21 07:55:55;;;;;;;11.52;10.43;;;5.70;99.90;;;;;;4993166;28;20030;-73
2020/12/21 07:58:21;;;;;;;15.27;12.30;;;5.60;99.90;;;;;;4995767;28;20026;-72
2020/12/21 08:00:58;;;;;;;13.05;11.75;;;5.70;99.90;;;;;;5013910;28;20033;-74
2020/12/21 08:03:25;;;;;;;11.25;10.10;;;5.70;99.90;;;;;;5013975;28;20064;-74
2020/12/21 08:06:03;;;;;;;13.40;11.63;;;5.70;99.90;;;;;;5011921;28;20452;-73
2020/12/21 08:08:29;;;;;;;11.60;10.40;;;5.70;99.90;;;;;;5013313;28;20458;-75
2020/12/21 08:10:55;;;;;;;11.25;10.15;;;5.70;99.90;;;;;;5013465;28;20025;-73
2020/12/21 08:13:21;;;;;;;12.10;10.25;;;5.70;99.90;;;;;;5012627;28;20034;-73
2020/12/21 08:15:47;;;;;;;11.75;10.32;;;5.80;99.90;;;;;;4994929;28;20032;-72
2020/12/21 08:18:12;;;;;;;12.25;10.30;;;6.00;99.90;;;;;;5012375;28;20029;-72
2020/12/21 08:20:51;;;;;;;11.32;9.93;;;6.10;99.90;;;;;;5012156;28;20108;-73
2020/12/21 08:23:29;;;;;;;10.32;9.32;;;6.10;99.90;;;;;;4988585;28;20094;-74
2020/12/21 08:25:55;;;;;;;13.20;10.30;;;6.10;99.90;;;;;;5017467;28;20025;-73
2020/12/21 08:28:25;;;;;;;10.88;8.73;;;6.10;99.90;;;;;;5010911;28;20030;-73
2020/12/21 08:31:13;;;;;;;13.70;8.97;;;6.20;99.90;;;;;;5018873;28;20078;-75
2020/12/21 08:33:42;;;;;;;10.50;9.43;;;6.30;99.90;;;;;;5024600;28;20741;-73
2020/12/21 08:36:20;;;;;;;11.57;9.13;;;6.30;99.90;;;;;;5023913;28;20026;-73
2020/12/21 08:38:47;;;;;;;10.20;8.93;;;6.30;99.90;;;;;;5001591;28;20029;-73
2020/12/21 08:41:12;;;;;;;10.77;9.52;;;6.30;99.90;;;;;;5018406;28;20041;-73
2020/12/21 08:43:38;;;;;;;8.70;7.80;;;6.30;99.90;;;;;;5017242;28;20034;-74
2020/12/21 08:46:11;;;;;;;10.52;8.65;;;6.30;99.90;;;;;;5009628;28;20030;-73
2020/12/21 08:48:40;;;;;;;9.23;8.43;;;6.40;99.90;;;;;;5012883;28;20030;-73
2020/12/21 08:51:06;;;;;;;11.25;9.93;;;6.40;99.90;;;;;;5008562;28;20041;-74
2020/12/21 08:53:31;;;;;;;10.35;9.27;;;6.50;99.90;;;;;;5013397;28;20030;-74
2020/12/21 08:55:57;;;;;;;8.73;7.82;;;6.60;99.90;;;;;;5014113;28;20359;-73
2020/12/21 08:58:23;;;;;;;9.63;8.65;;;6.60;99.90;;;;;;5018886;28;20084;-74
2020/12/21 09:00:48;;;;;;;10.18;9.18;;;6.60;99.90;;;;;;4997005;28;20054;-74
2020/12/21 09:03:14;;;;;;;9.88;8.40;;;6.60;99.90;;;;;;5014628;28;20095;-73
2020/12/21 09:05:39;;;;;;;10.82;9.10;;;6.70;99.90;;;;;;4995687;28;20054;-73
2020/12/21 09:08:05;;;;;;;10.27;9.15;;;6.80;99.90;;;;;;5013013;28;20030;-74
2020/12/21 09:10:30;;;;;;;9.90;8.82;;;6.90;99.90;;;;;;5014468;28;20073;-74
2020/12/21 09:12:56;;;;;;;12.38;9.68;;;6.90;99.90;;;;;;5012337;28;20484;-73
2020/12/21 09:15:21;;;;;;;13.27;9.88;;;6.70;99.90;;;;;;5009834;28;20029;-74
2020/12/21 09:17:47;;;;;;;12.10;10.18;;;6.80;99.90;;;;;;5008787;28;20412;-74
2020/12/21 09:20:12;;;;;;;14.02;9.80;;;6.70;99.90;;;;;;4995092;28;20508;-73
2020/12/21 09:22:38;;;;;;;13.57;9.52;;;6.80;99.90;;;;;;5013126;28;20029;-72
2020/12/21 09:25:03;;;;;;;11.98;9.38;;;6.70;99.90;;;;;;5026999;28;20081;-74
2020/12/21 09:27:29;;;;;;;10.90;9.77;;;6.70;99.90;;;;;;5021630;28;20093;-74
2020/12/21 09:29:55;;;;;;;12.38;9.15;;;6.70;99.90;;;;;;5034618;28;20006;-72
2020/12/21 09:32:20;;;;;;;10.25;9.15;;;6.70;99.90;;;;;;5029915;28;20030;-74
2020/12/21 09:34:48;;;;;;;12.38;9.38;;;6.70;99.90;;;;;;5012739;28;20025;-73
2020/12/21 09:37:14;;;;;;;11.25;9.02;;;6.80;99.90;;;;;;5021362;28;20030;-74
2020/12/21 09:39:39;;;;;;;10.32;8.80;;;6.80;99.90;;;;;;5015375;28;20030;-74
2020/12/21 09:42:05;;;;;;;11.95;9.98;;;6.80;99.90;;;;;;5018308;28;20117;-74
2020/12/21 09:44:34;;;;;;;11.95;8.98;;;6.80;99.90;;;;;;5009099;28;20438;-74
2020/12/21 09:46:59;;;;;;;10.82;8.40;;;6.90;99.90;;;;;;5016346;28;20038;-74
2020/12/21 09:49:25;;;;;;;9.35;8.45;;;7.00;99.90;;;;;;5017890;28;20137;-73
2020/12/21 09:51:52;;;;;;;8.23;7.43;;;7.00;99.90;;;;;;5022779;28;20029;-75
2020/12/21 09:54:18;;;;;;;11.65;8.40;;;7.00;99.90;;;;;;5008255;28;20040;-74
2020/12/21 09:56:50;;;;;;;10.60;8.25;;;7.10;99.90;;;;;;5017360;28;20034;-73
2020/12/21 09:59:16;;;;;;;8.52;7.72;;;7.10;99.90;;;;;;5020206;28;20100;-74
2020/12/21 10:01:42;;;;;;;11.07;9.90;;;7.10;99.90;;;;;;5016647;28;20466;-74
2020/12/21 10:04:07;;;;;;;12.13;8.77;;;7.10;99.90;;;;;;5009437;28;20101;-74
2020/12/21 10:06:33;;;;;;;10.07;9.13;;;7.10;99.90;;;;;;5009811;28;20073;-74
2020/12/21 10:08:59;;;;;;;9.35;7.32;;;7.10;99.90;;;;;;4999101;28;20072;-73
2020/12/21 10:11:24;;;;;;;10.30;9.20;;;7.10;99.90;;;;;;5015955;28;20382;-73
2020/12/21 10:13:50;;;;;;;11.52;8.32;;;7.20;99.90;;;;;;5011655;28;20486;-73
2020/12/21 10:16:16;;;;;;;9.38;8.45;;;7.20;99.90;;;;;;5016426;28;20049;-74
2020/12/21 10:18:41;;;;;;;13.90;8.65;;;7.20;99.90;;;;;;4998611;28;20030;-73
2020/12/21 10:21:07;;;;;;;9.10;8.20;;;7.20;99.90;;;;;;5015989;28;20088;-73
2020/12/21 10:23:33;;;;;;;11.85;8.20;;;7.20;99.90;;;;;;5009923;28;20053;-73
2020/12/21 10:26:02;;;;;;;9.48;8.60;;;7.20;99.90;;;;;;5013294;28;20493;-74
2020/12/21 10:28:28;;;;;;;8.55;7.75;;;7.20;99.90;;;;;;5006683;28;20283;-72
2020/12/21 10:30:53;;;;;;;10.85;9.10;;;7.20;99.90;;;;;;5013907;28;20022;-74
2020/12/21 10:33:19;;;;;;;10.25;9.20;;;7.20;99.90;;;;;;5002586;28;20069;-74
2020/12/21 10:35:44;;;;;;;10.70;9.13;;;7.20;99.90;;;;;;4991702;28;20029;-72
2020/12/21 10:38:10;;;;;;;12.27;9.65;;;7.30;99.90;;;;;;5012081;28;20108;-71
2020/12/21 10:40:36;;;;;;;10.82;9.15;;;7.30;99.90;;;;;;5009518;28;20026;-72
2020/12/21 10:43:01;;;;;;;14.75;9.50;;;7.50;99.90;;;;;;5013610;28;20022;-73
2020/12/21 10:45:27;;;;;;;11.23;9.55;;;7.90;99.90;;;;;;4997256;28;20057;-71
2020/12/21 10:47:53;;;;;;;11.70;9.48;;;8.10;99.90;;;;;;5013865;28;20022;-70
2020/12/21 10:50:18;;;;;;;15.02;9.40;;;8.00;99.90;;;;;;5021855;28;20034;-69
2020/12/21 10:52:44;;;;;;;13.05;9.38;;;7.90;99.90;;;;;;5035747;28;20046;-70
2020/12/21 10:55:10;;;;;;;13.68;10.00;;;8.10;99.90;;;;;;5016615;28;20029;-70
2020/12/21 10:57:35;;;;;;;17.33;9.82;;;8.00;99.90;;;;;;5014617;28;20482;-70
2020/12/21 11:00:01;;;;;;;12.38;9.80;;;7.80;99.90;;;;;;5014627;28;20105;-70
2020/12/21 11:02:26;;;;;;;12.45;9.68;;;7.70;99.90;;;;;;5016269;28;20033;-69
2020/12/21 11:04:52;;;;;;;10.68;9.45;;;8.00;99.90;;;;;;5016227;28;20104;-70
2020/12/21 11:07:18;;;;;;;10.73;9.52;;;8.20;99.90;;;;;;5016469;28;20467;-69
2020/12/21 11:09:43;;;;;;;12.50;9.20;;;8.40;99.90;;;;;;5015207;28;20053;-72
2020/12/21 11:12:09;;;;;;;13.65;9.43;;;8.40;99.90;;;;;;4997881;28;20033;-71
2020/12/21 11:14:34;;;;;;;10.20;8.82;;;8.40;99.90;;;;;;5010084;28;20025;-70
2020/12/21 11:17:00;;;;;;;10.82;8.68;;;8.40;99.90;;;;;;5004355;28;20014;-71
2020/12/21 11:19:25;;;;;;;14.98;10.30;;;8.30;99.90;;;;;;5024475;28;20037;-72
2020/12/21 11:21:51;;;;;;;15.32;9.75;;;8.40;99.90;;;;;;5016201;28;20030;-69
2020/12/21 11:24:16;;;;;;;10.95;9.23;;;8.40;99.90;;;;;;5012576;28;20026;-71
2020/12/21 11:26:42;;;;;;;10.07;7.88;;;8.40;99.90;;;;;;5011313;28;20452;-70
2020/12/21 11:29:08;;;;;;;11.57;7.75;;;8.40;99.90;;;;;;5008953;28;20058;-74
2020/12/21 11:31:36;;;;;;;12.75;8.52;;;8.50;99.90;;;;;;5015364;28;20406;-70
2020/12/21 11:34:03;;;;;;;11.63;9.02;;;8.60;99.90;;;;;;5016092;28;20115;-72
2020/12/21 11:36:29;;;;;;;9.50;8.50;;;8.50;99.90;;;;;;5017275;28;20112;-71
2020/12/21 11:38:54;;;;;;;9.32;8.00;;;8.30;99.90;;;;;;5021160;28;20381;-71
2020/12/21 11:41:20;;;;;;;8.32;7.50;;;8.50;99.90;;;;;;5029060;28;20184;-72
2020/12/21 11:43:45;;;;;;;9.00;7.88;;;8.60;99.90;;;;;;5034149;28;20030;-71
2020/12/21 11:46:13;;;;;;;10.25;8.30;;;8.50;99.90;;;;;;5017773;28;20009;-71
2020/12/21 11:48:38;;;;;;;11.27;8.68;;;8.50;99.90;;;;;;5000416;28;20033;-72
2020/12/21 11:51:04;;;;;;;10.85;8.57;;;8.40;99.90;;;;;;5014026;28;20481;-70
2020/12/21 11:53:30;;;;;;;11.13;8.70;;;8.40;99.90;;;;;;5013803;28;20061;-71
2020/12/21 11:55:55;;;;;;;12.75;8.23;;;8.20;99.90;;;;;;5013996;28;20034;-70
2020/12/21 11:58:21;;;;;;;9.50;8.50;;;8.10;99.90;;;;;;5014589;28;20038;-71
2020/12/21 12:00:46;;;;;;;9.52;8.52;;;8.10;99.90;;;;;;5012881;28;20026;-70
2020/12/21 12:03:12;;;;;;;12.70;9.02;;;8.30;99.90;;;;;;5013810;28;20229;-70
2020/12/21 12:05:37;;;;;;;10.43;8.82;;;8.60;99.90;;;;;;5013378;28;20228;-71
2020/12/21 12:08:03;;;;;;;10.15;7.72;;;8.90;99.90;;;;;;5012119;28;20040;-71
2020/12/21 12:10:29;;;;;;;10.43;7.93;;;9.10;99.90;;;;;;5012222;28;20057;-70
2020/12/21 12:12:54;;;;;;;11.52;8.10;;;9.20;99.90;;;;;;5011789;28;20036;-70
2020/12/21 12:15:20;;;;;;;13.32;7.95;;;9.30;99.90;;;;;;5009744;28;20069;-70
2020/12/21 12:17:45;;;;;;;13.32;8.70;;;9.40;99.90;;;;;;5009112;28;20482;-72
2020/12/21 12:20:12;;;;;;;10.00;9.05;;;9.40;99.90;;;;;;5012369;28;20077;-71
2020/12/21 12:22:38;;;;;;;15.63;8.30;;;9.30;99.90;;;;;;5011728;28;20042;-69
2020/12/21 12:25:04;;;;;;;9.00;8.10;;;9.30;99.90;;;;;;5011888;28;20065;-71
2020/12/21 12:27:30;;;;;;;6.10;5.30;;;8.90;99.90;;;;;;5013835;28;20033;-72
2020/12/21 12:29:55;;;;;;;4.60;3.85;;;9.00;99.90;;;;;;5014567;28;20037;-73
2020/12/21 12:32:21;;;;;;;6.40;3.00;;;9.10;99.90;;;;;;5012825;28;20117;-69
2020/12/21 12:34:47;;;;;;;6.22;3.50;;;9.30;99.90;;;;;;5012470;28;20053;-71
2020/12/21 12:37:12;;;;;;;4.00;3.00;;;9.40;99.90;;;;;;5010843;28;20366;-71
2020/12/21 12:39:38;;;;;;;3.83;2.45;;;9.50;99.90;;;;;;5012135;28;20025;-71